UATG/GUW METAR and TAF weather

Enter ICAO airport designator
Station Type Date Time Source
UATG METAR 2022/12/05 13:30 UTC NOAA

UATG 051330Z 29004MPS 9999 BKN033CB M07/M17 Q1037 NOSIG RMK QFE779/1039


Station Type Date Time Source
UATG Decoded METAR 2022/12/05 13:30 UTC NOAA

Station name not available
Dec 05, 2022 - 08:30 AM EST / 2022.12.05 1330 UTC
Wind: from the WNW (290 degrees) at 9 MPH (8 KT):0
Visibility: greater than 7 mile(s):0
Sky conditions: mostly cloudy
Weather: Cumulonimbus clouds observed
Temperature: 19 F (-7 C)
Windchill: 8 F (-13 C):1
Dew Point: 1 F (-17 C)
Relative Humidity: 44%
Pressure (altimeter): 30.62 in. Hg (1037 hPa)
ob: UATG 051330Z 29004MPS 9999 BKN033CB M07/M17 Q1037 NOSIG RMK QFE779/1039
cycle: 13

Station Type Date Time Source
UATG TAF 2022/12/05 12:21 UTC NOAA

TAF UATG 051103Z 0512/0612 30007MPS 9999 SCT033CB TXM05/0610Z TNM15/0603Z
TEMPO 0513/0518 33006MPS 4000 -SHSN BR BKN020CB
FM051800 01006MPS 4000 BR BKN033CB
BECMG 0604/0606 9999 NSW SCT033CB

Example: see airport list